sensor_id;sensor_type;location;lat;lon;timestamp;P1;durP1;ratioP1;P2;durP2;ratioP2
70169;SDS011;57543;45.442;9.212;2022-08-21T00:01:46;5.43;;;1.95;;
70169;SDS011;57543;45.442;9.212;2022-08-21T00:04:50;4.28;;;1.85;;
70169;SDS011;57543;45.442;9.212;2022-08-21T00:07:54;4.70;;;1.77;;
70169;SDS011;57543;45.442;9.212;2022-08-21T00:10:58;4.63;;;1.83;;
70169;SDS011;57543;45.442;9.212;2022-08-21T00:14:03;4.28;;;1.85;;
70169;SDS011;57543;45.442;9.212;2022-08-21T00:17:10;5.50;;;1.95;;
70169;SDS011;57543;45.442;9.212;2022-08-21T00:20:14;5.72;;;2.10;;
70169;SDS011;57543;45.442;9.212;2022-08-21T00:23:19;3.77;;;1.80;;
70169;SDS011;57543;45.442;9.212;2022-08-21T00:26:23;5.75;;;2.25;;
70169;SDS011;57543;45.442;9.212;2022-08-21T00:29:26;5.00;;;2.20;;
70169;SDS011;57543;45.442;9.212;2022-08-21T00:32:31;4.55;;;2.10;;
70169;SDS011;57543;45.442;9.212;2022-08-21T00:35:36;4.47;;;2.15;;
70169;SDS011;57543;45.442;9.212;2022-08-21T00:38:42;4.80;;;2.10;;
70169;SDS011;57543;45.442;9.212;2022-08-21T00:41:46;4.05;;;1.77;;
70169;SDS011;57543;45.442;9.212;2022-08-21T00:44:49;4.68;;;2.20;;
70169;SDS011;57543;45.442;9.212;2022-08-21T00:47:53;5.47;;;2.00;;
70169;SDS011;57543;45.442;9.212;2022-08-21T00:51:01;5.45;;;2.00;;
70169;SDS011;57543;45.442;9.212;2022-08-21T00:54:09;4.07;;;1.80;;
70169;SDS011;57543;45.442;9.212;2022-08-21T00:57:16;3.38;;;1.73;;
70169;SDS011;57543;45.442;9.212;2022-08-21T01:00:28;3.80;;;1.80;;
70169;SDS011;57543;45.442;9.212;2022-08-21T01:03:35;4.40;;;1.73;;
70169;SDS011;57543;45.442;9.212;2022-08-21T01:06:39;4.07;;;1.92;;
70169;SDS011;57543;45.442;9.212;2022-08-21T01:09:43;3.70;;;1.70;;
70169;SDS011;57543;45.442;9.212;2022-08-21T01:12:51;4.35;;;2.05;;
70169;SDS011;57543;45.442;9.212;2022-08-21T01:15:56;4.40;;;2.08;;
70169;SDS011;57543;45.442;9.212;2022-08-21T01:19:02;4.80;;;2.30;;
70169;SDS011;57543;45.442;9.212;2022-08-21T01:22:06;3.90;;;1.90;;
70169;SDS011;57543;45.442;9.212;2022-08-21T01:25:13;4.00;;;2.13;;
70169;SDS011;57543;45.442;9.212;2022-08-21T01:28:18;4.63;;;2.15;;
70169;SDS011;57543;45.442;9.212;2022-08-21T01:31:23;4.85;;;2.30;;
70169;SDS011;57543;45.442;9.212;2022-08-21T01:34:28;4.38;;;1.90;;
70169;SDS011;57543;45.442;9.212;2022-08-21T01:37:31;5.10;;;2.08;;
70169;SDS011;57543;45.442;9.212;2022-08-21T01:40:35;5.43;;;2.10;;
70169;SDS011;57543;45.442;9.212;2022-08-21T01:43:39;3.85;;;1.90;;
70169;SDS011;57543;45.442;9.212;2022-08-21T01:46:42;5.75;;;1.98;;
70169;SDS011;57543;45.442;9.212;2022-08-21T01:49:46;4.38;;;1.75;;
70169;SDS011;57543;45.442;9.212;2022-08-21T01:52:50;5.82;;;1.70;;
70169;SDS011;57543;45.442;9.212;2022-08-21T01:55:54;4.73;;;1.40;;
70169;SDS011;57543;45.442;9.212;2022-08-21T01:58:58;4.43;;;1.55;;
70169;SDS011;57543;45.442;9.212;2022-08-21T02:02:02;3.17;;;1.30;;
70169;SDS011;57543;45.442;9.212;2022-08-21T02:05:07;3.10;;;1.27;;
70169;SDS011;57543;45.442;9.212;2022-08-21T02:08:13;3.35;;;1.40;;
70169;SDS011;57543;45.442;9.212;2022-08-21T02:11:16;3.27;;;1.20;;
70169;SDS011;57543;45.442;9.212;2022-08-21T02:14:20;2.63;;;1.02;;
70169;SDS011;57543;45.442;9.212;2022-08-21T02:17:24;4.95;;;1.60;;
70169;SDS011;57543;45.442;9.212;2022-08-21T02:20:29;3.40;;;1.50;;
70169;SDS011;57543;45.442;9.212;2022-08-21T02:23:34;4.05;;;1.92;;
70169;SDS011;57543;45.442;9.212;2022-08-21T02:26:38;3.80;;;1.47;;
70169;SDS011;57543;45.442;9.212;2022-08-21T02:29:42;3.45;;;1.50;;
70169;SDS011;57543;45.442;9.212;2022-08-21T02:32:46;3.63;;;1.80;;
70169;SDS011;57543;45.442;9.212;2022-08-21T02:35:50;5.32;;;1.88;;
70169;SDS011;57543;45.442;9.212;2022-08-21T02:38:54;6.03;;;1.80;;
70169;SDS011;57543;45.442;9.212;2022-08-21T02:41:59;4.27;;;2.17;;
70169;SDS011;57543;45.442;9.212;2022-08-21T02:45:02;4.18;;;1.90;;
70169;SDS011;57543;45.442;9.212;2022-08-21T02:48:07;4.25;;;2.28;;
70169;SDS011;57543;45.442;9.212;2022-08-21T02:51:14;5.60;;;2.40;;
70169;SDS011;57543;45.442;9.212;2022-08-21T02:54:20;4.82;;;2.67;;
70169;SDS011;57543;45.442;9.212;2022-08-21T02:57:24;5.20;;;2.80;;
70169;SDS011;57543;45.442;9.212;2022-08-21T03:00:29;5.95;;;2.80;;
70169;SDS011;57543;45.442;9.212;2022-08-21T03:03:33;5.25;;;2.97;;
70169;SDS011;57543;45.442;9.212;2022-08-21T03:06:38;6.03;;;3.03;;
70169;SDS011;57543;45.442;9.212;2022-08-21T03:09:42;6.30;;;3.97;;
70169;SDS011;57543;45.442;9.212;2022-08-21T03:12:46;7.90;;;4.30;;
70169;SDS011;57543;45.442;9.212;2022-08-21T03:15:50;6.78;;;3.83;;
70169;SDS011;57543;45.442;9.212;2022-08-21T03:18:54;6.03;;;3.28;;
70169;SDS011;57543;45.442;9.212;2022-08-21T03:21:58;6.07;;;3.40;;
70169;SDS011;57543;45.442;9.212;2022-08-21T03:25:02;6.18;;;3.42;;
70169;SDS011;57543;45.442;9.212;2022-08-21T03:28:07;6.00;;;3.40;;
70169;SDS011;57543;45.442;9.212;2022-08-21T03:31:13;7.75;;;3.55;;
70169;SDS011;57543;45.442;9.212;2022-08-21T03:34:17;5.45;;;3.22;;
70169;SDS011;57543;45.442;9.212;2022-08-21T03:37:21;5.72;;;2.95;;
70169;SDS011;57543;45.442;9.212;2022-08-21T03:40:24;5.55;;;2.97;;
70169;SDS011;57543;45.442;9.212;2022-08-21T03:43:28;6.47;;;3.50;;
70169;SDS011;57543;45.442;9.212;2022-08-21T03:46:32;6.13;;;3.25;;
70169;SDS011;57543;45.442;9.212;2022-08-21T03:49:37;6.85;;;3.72;;
70169;SDS011;57543;45.442;9.212;2022-08-21T03:52:41;6.65;;;3.85;;
70169;SDS011;57543;45.442;9.212;2022-08-21T03:55:45;6.07;;;3.53;;
70169;SDS011;57543;45.442;9.212;2022-08-21T03:58:49;6.63;;;3.63;;
70169;SDS011;57543;45.442;9.212;2022-08-21T04:01:54;5.97;;;3.17;;
70169;SDS011;57543;45.442;9.212;2022-08-21T04:05:05;5.88;;;3.53;;
70169;SDS011;57543;45.442;9.212;2022-08-21T04:08:09;6.55;;;3.22;;
70169;SDS011;57543;45.442;9.212;2022-08-21T04:11:12;6.80;;;3.80;;
70169;SDS011;57543;45.442;9.212;2022-08-21T04:14:19;7.13;;;3.63;;
70169;SDS011;57543;45.442;9.212;2022-08-21T04:17:23;5.55;;;3.08;;
70169;SDS011;57543;45.442;9.212;2022-08-21T04:20:27;7.20;;;2.95;;
70169;SDS011;57543;45.442;9.212;2022-08-21T04:23:31;5.68;;;2.90;;
70169;SDS011;57543;45.442;9.212;2022-08-21T04:26:35;5.80;;;2.70;;
70169;SDS011;57543;45.442;9.212;2022-08-21T04:29:39;5.80;;;3.10;;
70169;SDS011;57543;45.442;9.212;2022-08-21T04:32:44;6.10;;;2.75;;
70169;SDS011;57543;45.442;9.212;2022-08-21T04:35:49;6.22;;;2.83;;
70169;SDS011;57543;45.442;9.212;2022-08-21T04:38:53;6.20;;;2.80;;
70169;SDS011;57543;45.442;9.212;2022-08-21T04:41:57;7.45;;;2.80;;
70169;SDS011;57543;45.442;9.212;2022-08-21T04:45:01;5.53;;;3.00;;
70169;SDS011;57543;45.442;9.212;2022-08-21T04:48:06;6.03;;;3.35;;
70169;SDS011;57543;45.442;9.212;2022-08-21T04:54:20;5.40;;;3.03;;
70169;SDS011;57543;45.442;9.212;2022-08-21T04:57:25;6.30;;;2.92;;
70169;SDS011;57543;45.442;9.212;2022-08-21T05:00:29;4.50;;;2.70;;
70169;SDS011;57543;45.442;9.212;2022-08-21T05:03:34;7.05;;;3.05;;
70169;SDS011;57543;45.442;9.212;2022-08-21T05:06:39;5.22;;;2.72;;
70169;SDS011;57543;45.442;9.212;2022-08-21T05:09:47;6.75;;;2.53;;
70169;SDS011;57543;45.442;9.212;2022-08-21T05:12:51;6.82;;;2.65;;
70169;SDS011;57543;45.442;9.212;2022-08-21T05:15:55;5.77;;;2.30;;
70169;SDS011;57543;45.442;9.212;2022-08-21T05:18:59;4.70;;;2.45;;
70169;SDS011;57543;45.442;9.212;2022-08-21T05:22:03;5.60;;;2.30;;
70169;SDS011;57543;45.442;9.212;2022-08-21T05:25:07;4.70;;;2.20;;
70169;SDS011;57543;45.442;9.212;2022-08-21T05:28:12;4.57;;;2.30;;
70169;SDS011;57543;45.442;9.212;2022-08-21T05:31:16;5.60;;;2.10;;
70169;SDS011;57543;45.442;9.212;2022-08-21T05:34:21;5.43;;;2.47;;
70169;SDS011;57543;45.442;9.212;2022-08-21T05:37:26;4.50;;;2.10;;
70169;SDS011;57543;45.442;9.212;2022-08-21T05:40:30;4.65;;;2.20;;
70169;SDS011;57543;45.442;9.212;2022-08-21T05:43:35;4.80;;;2.45;;
70169;SDS011;57543;45.442;9.212;2022-08-21T05:46:39;4.30;;;2.10;;
70169;SDS011;57543;45.442;9.212;2022-08-21T05:49:43;4.10;;;2.10;;
70169;SDS011;57543;45.442;9.212;2022-08-21T05:52:47;6.30;;;2.65;;
70169;SDS011;57543;45.442;9.212;2022-08-21T05:55:50;4.32;;;2.30;;
70169;SDS011;57543;45.442;9.212;2022-08-21T05:58:55;4.72;;;2.20;;
70169;SDS011;57543;45.442;9.212;2022-08-21T06:01:58;5.53;;;2.40;;
70169;SDS011;57543;45.442;9.212;2022-08-21T06:05:02;4.82;;;2.13;;
70169;SDS011;57543;45.442;9.212;2022-08-21T06:08:07;4.40;;;2.42;;
70169;SDS011;57543;45.442;9.212;2022-08-21T06:11:11;4.97;;;2.50;;
70169;SDS011;57543;45.442;9.212;2022-08-21T06:14:15;5.15;;;2.28;;
70169;SDS011;57543;45.442;9.212;2022-08-21T06:17:19;4.10;;;2.20;;
70169;SDS011;57543;45.442;9.212;2022-08-21T06:20:23;4.30;;;2.20;;
70169;SDS011;57543;45.442;9.212;2022-08-21T06:23:27;5.75;;;2.00;;
70169;SDS011;57543;45.442;9.212;2022-08-21T06:26:31;5.65;;;2.17;;
70169;SDS011;57543;45.442;9.212;2022-08-21T06:29:35;3.97;;;1.92;;
70169;SDS011;57543;45.442;9.212;2022-08-21T06:32:39;4.03;;;1.90;;
70169;SDS011;57543;45.442;9.212;2022-08-21T06:35:43;5.20;;;1.70;;
70169;SDS011;57543;45.442;9.212;2022-08-21T06:38:46;4.10;;;2.00;;
70169;SDS011;57543;45.442;9.212;2022-08-21T06:41:50;4.32;;;1.48;;
70169;SDS011;57543;45.442;9.212;2022-08-21T06:44:53;3.33;;;1.50;;
70169;SDS011;57543;45.442;9.212;2022-08-21T06:47:58;4.47;;;1.40;;
70169;SDS011;57543;45.442;9.212;2022-08-21T06:51:02;3.63;;;1.70;;
70169;SDS011;57543;45.442;9.212;2022-08-21T06:54:06;3.75;;;1.60;;
70169;SDS011;57543;45.442;9.212;2022-08-21T06:57:10;3.88;;;1.40;;
70169;SDS011;57543;45.442;9.212;2022-08-21T07:00:14;4.97;;;1.40;;
70169;SDS011;57543;45.442;9.212;2022-08-21T07:03:25;3.73;;;1.40;;
70169;SDS011;57543;45.442;9.212;2022-08-21T07:06:34;6.47;;;1.90;;
70169;SDS011;57543;45.442;9.212;2022-08-21T07:09:38;4.28;;;1.80;;
70169;SDS011;57543;45.442;9.212;2022-08-21T07:12:42;5.82;;;1.50;;
70169;SDS011;57543;45.442;9.212;2022-08-21T07:15:46;4.00;;;1.50;;
70169;SDS011;57543;45.442;9.212;2022-08-21T07:18:50;3.67;;;1.70;;
70169;SDS011;57543;45.442;9.212;2022-08-21T07:21:55;5.32;;;1.83;;
70169;SDS011;57543;45.442;9.212;2022-08-21T07:25:03;4.97;;;1.67;;
70169;SDS011;57543;45.442;9.212;2022-08-21T07:28:08;3.95;;;1.92;;
70169;SDS011;57543;45.442;9.212;2022-08-21T07:31:13;4.28;;;1.90;;
70169;SDS011;57543;45.442;9.212;2022-08-21T07:34:18;4.90;;;2.30;;
70169;SDS011;57543;45.442;9.212;2022-08-21T07:37:21;5.13;;;2.00;;
70169;SDS011;57543;45.442;9.212;2022-08-21T07:40:25;3.92;;;1.77;;
70169;SDS011;57543;45.442;9.212;2022-08-21T07:43:29;3.03;;;1.40;;
70169;SDS011;57543;45.442;9.212;2022-08-21T07:46:33;4.10;;;1.70;;
70169;SDS011;57543;45.442;9.212;2022-08-21T07:49:36;3.33;;;1.60;;
70169;SDS011;57543;45.442;9.212;2022-08-21T07:52:41;3.63;;;1.42;;
70169;SDS011;57543;45.442;9.212;2022-08-21T07:55:46;3.75;;;1.60;;
70169;SDS011;57543;45.442;9.212;2022-08-21T07:58:50;3.83;;;1.70;;
70169;SDS011;57543;45.442;9.212;2022-08-21T08:01:53;7.63;;;1.77;;
70169;SDS011;57543;45.442;9.212;2022-08-21T08:04:58;4.53;;;2.00;;
70169;SDS011;57543;45.442;9.212;2022-08-21T08:08:04;4.28;;;1.90;;
70169;SDS011;57543;45.442;9.212;2022-08-21T08:11:08;4.78;;;1.98;;
70169;SDS011;57543;45.442;9.212;2022-08-21T08:14:14;4.55;;;1.75;;
70169;SDS011;57543;45.442;9.212;2022-08-21T08:17:19;3.83;;;1.95;;
70169;SDS011;57543;45.442;9.212;2022-08-21T08:20:25;4.80;;;2.20;;
70169;SDS011;57543;45.442;9.212;2022-08-21T08:23:32;3.65;;;1.90;;
70169;SDS011;57543;45.442;9.212;2022-08-21T08:26:36;3.88;;;1.83;;
70169;SDS011;57543;45.442;9.212;2022-08-21T08:29:39;5.38;;;1.90;;
70169;SDS011;57543;45.442;9.212;2022-08-21T08:32:43;3.40;;;1.70;;
70169;SDS011;57543;45.442;9.212;2022-08-21T08:35:49;3.57;;;1.77;;
70169;SDS011;57543;45.442;9.212;2022-08-21T08:38:53;4.13;;;1.70;;
70169;SDS011;57543;45.442;9.212;2022-08-21T08:42:07;3.30;;;1.77;;
70169;SDS011;57543;45.442;9.212;2022-08-21T08:45:16;3.47;;;1.50;;
70169;SDS011;57543;45.442;9.212;2022-08-21T08:51:56;3.27;;;1.80;;
70169;SDS011;57543;45.442;9.212;2022-08-21T08:55:15;3.90;;;1.77;;
70169;SDS011;57543;45.442;9.212;2022-08-21T08:58:27;3.38;;;1.70;;
70169;SDS011;57543;45.442;9.212;2022-08-21T09:01:35;4.85;;;1.70;;
70169;SDS011;57543;45.442;9.212;2022-08-21T09:04:39;3.63;;;1.73;;
70169;SDS011;57543;45.442;9.212;2022-08-21T09:07:52;4.23;;;2.03;;
70169;SDS011;57543;45.442;9.212;2022-08-21T09:11:29;4.75;;;1.70;;
70169;SDS011;57543;45.442;9.212;2022-08-21T09:21:31;4.68;;;2.33;;
70169;SDS011;57543;45.442;9.212;2022-08-21T09:28:35;4.30;;;1.70;;
70169;SDS011;57543;45.442;9.212;2022-08-21T09:31:39;3.92;;;2.10;;
70169;SDS011;57543;45.442;9.212;2022-08-21T09:34:53;3.80;;;2.05;;
70169;SDS011;57543;45.442;9.212;2022-08-21T09:38:04;3.75;;;1.80;;
70169;SDS011;57543;45.442;9.212;2022-08-21T09:41:29;5.70;;;2.30;;
70169;SDS011;57543;45.442;9.212;2022-08-21T09:44:39;4.15;;;2.10;;
70169;SDS011;57543;45.442;9.212;2022-08-21T09:47:46;4.90;;;2.10;;
70169;SDS011;57543;45.442;9.212;2022-08-21T09:50:50;5.30;;;2.00;;
70169;SDS011;57543;45.442;9.212;2022-08-21T09:54:10;7.47;;;2.30;;
70169;SDS011;57543;45.442;9.212;2022-08-21T09:57:29;5.33;;;2.30;;
70169;SDS011;57543;45.442;9.212;2022-08-21T10:00:42;3.67;;;1.90;;
70169;SDS011;57543;45.442;9.212;2022-08-21T10:03:47;3.55;;;1.92;;
70169;SDS011;57543;45.442;9.212;2022-08-21T10:06:51;5.30;;;2.20;;
70169;SDS011;57543;45.442;9.212;2022-08-21T10:10:01;4.45;;;1.60;;
70169;SDS011;57543;45.442;9.212;2022-08-21T10:13:14;4.17;;;1.80;;
70169;SDS011;57543;45.442;9.212;2022-08-21T10:16:37;4.45;;;1.80;;
70169;SDS011;57543;45.442;9.212;2022-08-21T10:30:32;3.27;;;1.50;;
70169;SDS011;57543;45.442;9.212;2022-08-21T10:34:04;4.47;;;1.60;;
70169;SDS011;57543;45.442;9.212;2022-08-21T10:37:33;3.78;;;1.60;;
70169;SDS011;57543;45.442;9.212;2022-08-21T10:44:09;3.85;;;1.60;;
70169;SDS011;57543;45.442;9.212;2022-08-21T10:48:08;3.20;;;1.50;;
70169;SDS011;57543;45.442;9.212;2022-08-21T11:01:12;5.47;;;1.70;;
70169;SDS011;57543;45.442;9.212;2022-08-21T11:04:24;3.90;;;1.20;;
70169;SDS011;57543;45.442;9.212;2022-08-21T11:11:04;4.55;;;1.83;;
70169;SDS011;57543;45.442;9.212;2022-08-21T11:14:29;2.92;;;1.30;;
70169;SDS011;57543;45.442;9.212;2022-08-21T11:17:50;3.42;;;1.58;;
70169;SDS011;57543;45.442;9.212;2022-08-21T11:24:43;3.53;;;1.63;;
70169;SDS011;57543;45.442;9.212;2022-08-21T11:27:58;3.22;;;1.30;;
70169;SDS011;57543;45.442;9.212;2022-08-21T11:34:39;3.22;;;1.38;;
70169;SDS011;57543;45.442;9.212;2022-08-21T11:38:04;3.40;;;1.33;;
70169;SDS011;57543;45.442;9.212;2022-08-21T11:41:34;3.20;;;1.55;;
70169;SDS011;57543;45.442;9.212;2022-08-21T11:51:13;2.70;;;1.40;;
70169;SDS011;57543;45.442;9.212;2022-08-21T11:54:38;5.37;;;1.60;;
70169;SDS011;57543;45.442;9.212;2022-08-21T12:01:05;4.53;;;1.70;;
70169;SDS011;57543;45.442;9.212;2022-08-21T12:04:22;4.15;;;1.30;;
70169;SDS011;57543;45.442;9.212;2022-08-21T12:07:30;3.75;;;1.35;;
70169;SDS011;57543;45.442;9.212;2022-08-21T12:10:46;2.73;;;1.30;;
70169;SDS011;57543;45.442;9.212;2022-08-21T12:17:15;4.57;;;1.70;;
70169;SDS011;57543;45.442;9.212;2022-08-21T12:20:40;3.22;;;1.23;;
70169;SDS011;57543;45.442;9.212;2022-08-21T12:23:47;3.00;;;1.30;;
70169;SDS011;57543;45.442;9.212;2022-08-21T12:26:54;3.50;;;1.37;;
70169;SDS011;57543;45.442;9.212;2022-08-21T12:30:33;4.47;;;1.40;;
70169;SDS011;57543;45.442;9.212;2022-08-21T12:33:39;3.78;;;1.40;;
70169;SDS011;57543;45.442;9.212;2022-08-21T12:36:54;3.38;;;1.42;;
70169;SDS011;57543;45.442;9.212;2022-08-21T12:40:04;2.80;;;1.30;;
70169;SDS011;57543;45.442;9.212;2022-08-21T12:43:15;2.80;;;1.30;;
70169;SDS011;57543;45.442;9.212;2022-08-21T12:46:28;4.07;;;1.35;;
70169;SDS011;57543;45.442;9.212;2022-08-21T12:49:50;3.10;;;1.17;;
70169;SDS011;57543;45.442;9.212;2022-08-21T12:56:34;3.03;;;1.30;;
70169;SDS011;57543;45.442;9.212;2022-08-21T12:59:39;5.00;;;1.40;;
70169;SDS011;57543;45.442;9.212;2022-08-21T13:02:46;3.38;;;1.30;;
70169;SDS011;57543;45.442;9.212;2022-08-21T13:05:52;2.80;;;1.30;;
70169;SDS011;57543;45.442;9.212;2022-08-21T13:08:57;2.75;;;1.23;;
70169;SDS011;57543;45.442;9.212;2022-08-21T13:12:07;4.05;;;1.42;;
70169;SDS011;57543;45.442;9.212;2022-08-21T13:15:11;3.20;;;1.30;;
70169;SDS011;57543;45.442;9.212;2022-08-21T13:18:20;2.78;;;1.10;;
70169;SDS011;57543;45.442;9.212;2022-08-21T13:21:33;2.88;;;1.30;;
70169;SDS011;57543;45.442;9.212;2022-08-21T13:24:47;3.25;;;1.27;;
70169;SDS011;57543;45.442;9.212;2022-08-21T13:28:04;3.20;;;1.30;;
70169;SDS011;57543;45.442;9.212;2022-08-21T13:31:15;3.13;;;1.20;;
70169;SDS011;57543;45.442;9.212;2022-08-21T13:34:31;2.60;;;1.27;;
70169;SDS011;57543;45.442;9.212;2022-08-21T13:37:39;2.80;;;1.20;;
70169;SDS011;57543;45.442;9.212;2022-08-21T13:40:53;2.72;;;1.20;;
70169;SDS011;57543;45.442;9.212;2022-08-21T13:44:21;2.53;;;1.23;;
70169;SDS011;57543;45.442;9.212;2022-08-21T13:47:43;2.60;;;1.10;;
70169;SDS011;57543;45.442;9.212;2022-08-21T13:50:50;2.67;;;1.15;;
70169;SDS011;57543;45.442;9.212;2022-08-21T13:53:54;2.80;;;1.30;;
70169;SDS011;57543;45.442;9.212;2022-08-21T13:56:59;2.58;;;1.10;;
70169;SDS011;57543;45.442;9.212;2022-08-21T14:00:43;2.67;;;1.23;;
70169;SDS011;57543;45.442;9.212;2022-08-21T14:03:36;2.57;;;1.20;;
70169;SDS011;57543;45.442;9.212;2022-08-21T14:06:45;3.03;;;1.20;;
70169;SDS011;57543;45.442;9.212;2022-08-21T14:09:49;3.80;;;1.40;;
70169;SDS011;57543;45.442;9.212;2022-08-21T14:12:55;2.70;;;1.15;;
70169;SDS011;57543;45.442;9.212;2022-08-21T14:16:01;3.13;;;1.23;;
70169;SDS011;57543;45.442;9.212;2022-08-21T14:19:08;3.17;;;1.30;;
70169;SDS011;57543;45.442;9.212;2022-08-21T14:23:06;3.17;;;1.23;;
70169;SDS011;57543;45.442;9.212;2022-08-21T14:25:50;3.42;;;1.20;;
70169;SDS011;57543;45.442;9.212;2022-08-21T14:28:57;2.97;;;1.20;;
70169;SDS011;57543;45.442;9.212;2022-08-21T14:32:14;2.90;;;1.20;;
70169;SDS011;57543;45.442;9.212;2022-08-21T14:35:22;3.33;;;1.40;;
70169;SDS011;57543;45.442;9.212;2022-08-21T14:38:27;3.38;;;1.15;;
70169;SDS011;57543;45.442;9.212;2022-08-21T14:41:31;3.33;;;1.50;;
70169;SDS011;57543;45.442;9.212;2022-08-21T14:44:35;2.75;;;1.30;;
70169;SDS011;57543;45.442;9.212;2022-08-21T14:47:39;3.08;;;1.30;;
70169;SDS011;57543;45.442;9.212;2022-08-21T14:50:43;2.70;;;1.20;;
70169;SDS011;57543;45.442;9.212;2022-08-21T14:53:47;3.33;;;1.25;;
70169;SDS011;57543;45.442;9.212;2022-08-21T14:56:51;2.72;;;1.20;;
70169;SDS011;57543;45.442;9.212;2022-08-21T14:59:55;2.40;;;1.10;;
70169;SDS011;57543;45.442;9.212;2022-08-21T15:02:58;2.50;;;1.10;;
70169;SDS011;57543;45.442;9.212;2022-08-21T15:06:03;2.57;;;1.20;;
70169;SDS011;57543;45.442;9.212;2022-08-21T15:09:07;2.60;;;1.20;;
70169;SDS011;57543;45.442;9.212;2022-08-21T15:12:11;2.95;;;1.20;;
70169;SDS011;57543;45.442;9.212;2022-08-21T15:15:17;2.92;;;1.30;;
70169;SDS011;57543;45.442;9.212;2022-08-21T15:18:22;3.03;;;1.30;;
70169;SDS011;57543;45.442;9.212;2022-08-21T15:21:27;2.80;;;1.20;;
70169;SDS011;57543;45.442;9.212;2022-08-21T15:24:30;3.03;;;1.20;;
70169;SDS011;57543;45.442;9.212;2022-08-21T15:27:34;4.15;;;1.52;;
70169;SDS011;57543;45.442;9.212;2022-08-21T15:30:40;2.70;;;1.27;;
70169;SDS011;57543;45.442;9.212;2022-08-21T15:33:44;4.57;;;1.35;;
70169;SDS011;57543;45.442;9.212;2022-08-21T15:36:48;3.80;;;1.27;;
70169;SDS011;57543;45.442;9.212;2022-08-21T15:39:52;2.80;;;1.17;;
70169;SDS011;57543;45.442;9.212;2022-08-21T15:42:57;3.78;;;1.40;;
70169;SDS011;57543;45.442;9.212;2022-08-21T15:49:26;3.05;;;1.50;;
70169;SDS011;57543;45.442;9.212;2022-08-21T15:52:29;2.83;;;1.10;;
70169;SDS011;57543;45.442;9.212;2022-08-21T15:55:33;3.00;;;1.40;;
70169;SDS011;57543;45.442;9.212;2022-08-21T15:58:37;2.78;;;1.50;;
70169;SDS011;57543;45.442;9.212;2022-08-21T16:01:41;4.45;;;1.30;;
70169;SDS011;57543;45.442;9.212;2022-08-21T16:04:45;2.80;;;1.20;;
70169;SDS011;57543;45.442;9.212;2022-08-21T16:07:50;4.13;;;1.30;;
70169;SDS011;57543;45.442;9.212;2022-08-21T16:10:54;3.92;;;1.15;;
70169;SDS011;57543;45.442;9.212;2022-08-21T16:13:58;3.08;;;1.55;;
70169;SDS011;57543;45.442;9.212;2022-08-21T16:17:05;2.78;;;1.27;;
70169;SDS011;57543;45.442;9.212;2022-08-21T16:20:11;3.17;;;1.35;;
70169;SDS011;57543;45.442;9.212;2022-08-21T16:23:16;2.80;;;1.40;;
70169;SDS011;57543;45.442;9.212;2022-08-21T16:26:19;2.83;;;1.40;;
70169;SDS011;57543;45.442;9.212;2022-08-21T16:29:23;3.03;;;1.20;;
70169;SDS011;57543;45.442;9.212;2022-08-21T16:32:31;2.90;;;1.20;;
70169;SDS011;57543;45.442;9.212;2022-08-21T16:35:37;3.30;;;1.23;;
70169;SDS011;57543;45.442;9.212;2022-08-21T16:38:41;2.80;;;1.20;;
70169;SDS011;57543;45.442;9.212;2022-08-21T16:41:46;2.53;;;1.20;;
70169;SDS011;57543;45.442;9.212;2022-08-21T16:44:52;2.65;;;1.30;;
70169;SDS011;57543;45.442;9.212;2022-08-21T16:47:57;3.47;;;1.25;;
70169;SDS011;57543;45.442;9.212;2022-08-21T16:51:01;2.83;;;1.23;;
70169;SDS011;57543;45.442;9.212;2022-08-21T16:54:05;2.50;;;1.10;;
70169;SDS011;57543;45.442;9.212;2022-08-21T16:57:09;4.25;;;1.30;;
70169;SDS011;57543;45.442;9.212;2022-08-21T17:00:14;4.93;;;1.20;;
70169;SDS011;57543;45.442;9.212;2022-08-21T17:03:18;3.30;;;1.30;;
70169;SDS011;57543;45.442;9.212;2022-08-21T17:06:23;2.40;;;1.10;;
70169;SDS011;57543;45.442;9.212;2022-08-21T17:09:27;3.30;;;1.40;;
70169;SDS011;57543;45.442;9.212;2022-08-21T17:12:32;4.03;;;1.30;;
70169;SDS011;57543;45.442;9.212;2022-08-21T17:15:37;2.60;;;1.20;;
70169;SDS011;57543;45.442;9.212;2022-08-21T17:18:41;2.88;;;1.30;;
70169;SDS011;57543;45.442;9.212;2022-08-21T17:21:45;3.95;;;1.50;;
70169;SDS011;57543;45.442;9.212;2022-08-21T17:24:49;3.87;;;1.30;;
70169;SDS011;57543;45.442;9.212;2022-08-21T17:27:53;2.60;;;1.20;;
70169;SDS011;57543;45.442;9.212;2022-08-21T17:30:57;2.90;;;1.30;;
70169;SDS011;57543;45.442;9.212;2022-08-21T17:34:02;2.80;;;1.30;;
70169;SDS011;57543;45.442;9.212;2022-08-21T17:37:06;3.22;;;1.42;;
70169;SDS011;57543;45.442;9.212;2022-08-21T17:40:10;2.97;;;1.23;;
70169;SDS011;57543;45.442;9.212;2022-08-21T17:43:16;3.05;;;1.20;;
70169;SDS011;57543;45.442;9.212;2022-08-21T17:46:21;3.15;;;1.25;;
70169;SDS011;57543;45.442;9.212;2022-08-21T17:49:29;2.90;;;1.30;;
70169;SDS011;57543;45.442;9.212;2022-08-21T17:52:33;3.30;;;1.00;;
70169;SDS011;57543;45.442;9.212;2022-08-21T17:55:37;3.80;;;1.10;;
70169;SDS011;57543;45.442;9.212;2022-08-21T17:58:41;2.88;;;1.00;;
70169;SDS011;57543;45.442;9.212;2022-08-21T18:01:48;5.65;;;1.00;;
70169;SDS011;57543;45.442;9.212;2022-08-21T18:04:52;3.75;;;1.10;;
70169;SDS011;57543;45.442;9.212;2022-08-21T18:07:58;2.63;;;1.20;;
70169;SDS011;57543;45.442;9.212;2022-08-21T18:11:02;4.20;;;1.20;;
70169;SDS011;57543;45.442;9.212;2022-08-21T18:14:06;3.95;;;1.30;;
70169;SDS011;57543;45.442;9.212;2022-08-21T18:17:11;3.20;;;1.30;;
70169;SDS011;57543;45.442;9.212;2022-08-21T18:20:20;2.80;;;1.23;;
70169;SDS011;57543;45.442;9.212;2022-08-21T18:23:25;2.90;;;1.20;;
70169;SDS011;57543;45.442;9.212;2022-08-21T18:26:35;3.27;;;1.50;;
70169;SDS011;57543;45.442;9.212;2022-08-21T18:29:40;2.70;;;1.10;;
70169;SDS011;57543;45.442;9.212;2022-08-21T18:32:45;3.20;;;1.17;;
70169;SDS011;57543;45.442;9.212;2022-08-21T18:35:49;3.10;;;1.35;;
70169;SDS011;57543;45.442;9.212;2022-08-21T18:38:53;2.95;;;1.20;;
70169;SDS011;57543;45.442;9.212;2022-08-21T18:41:57;2.60;;;1.10;;
70169;SDS011;57543;45.442;9.212;2022-08-21T18:45:02;3.00;;;1.30;;
70169;SDS011;57543;45.442;9.212;2022-08-21T18:48:09;3.28;;;1.25;;
70169;SDS011;57543;45.442;9.212;2022-08-21T18:51:14;2.90;;;1.30;;
70169;SDS011;57543;45.442;9.212;2022-08-21T18:54:18;3.78;;;1.20;;
70169;SDS011;57543;45.442;9.212;2022-08-21T18:57:27;2.83;;;1.33;;
70169;SDS011;57543;45.442;9.212;2022-08-21T19:00:34;2.88;;;1.30;;
70169;SDS011;57543;45.442;9.212;2022-08-21T19:03:43;3.40;;;1.50;;
70169;SDS011;57543;45.442;9.212;2022-08-21T19:06:47;3.42;;;1.60;;
70169;SDS011;57543;45.442;9.212;2022-08-21T19:09:51;3.40;;;1.30;;
70169;SDS011;57543;45.442;9.212;2022-08-21T19:12:56;3.73;;;1.60;;
70169;SDS011;57543;45.442;9.212;2022-08-21T19:16:01;4.72;;;1.80;;
70169;SDS011;57543;45.442;9.212;2022-08-21T19:19:07;3.42;;;1.65;;
70169;SDS011;57543;45.442;9.212;2022-08-21T19:22:12;3.80;;;1.80;;
70169;SDS011;57543;45.442;9.212;2022-08-21T19:25:15;4.32;;;1.90;;
70169;SDS011;57543;45.442;9.212;2022-08-21T19:28:53;4.50;;;2.23;;
70169;SDS011;57543;45.442;9.212;2022-08-21T19:31:51;4.43;;;2.15;;
70169;SDS011;57543;45.442;9.212;2022-08-21T19:34:56;5.22;;;1.80;;
70169;SDS011;57543;45.442;9.212;2022-08-21T19:38:00;3.53;;;1.60;;
70169;SDS011;57543;45.442;9.212;2022-08-21T19:41:03;3.30;;;1.60;;
70169;SDS011;57543;45.442;9.212;2022-08-21T19:44:09;4.53;;;1.70;;
70169;SDS011;57543;45.442;9.212;2022-08-21T19:47:17;3.55;;;1.60;;
70169;SDS011;57543;45.442;9.212;2022-08-21T19:50:22;3.83;;;1.60;;
70169;SDS011;57543;45.442;9.212;2022-08-21T19:53:26;3.58;;;1.50;;
70169;SDS011;57543;45.442;9.212;2022-08-21T19:56:30;3.03;;;1.50;;
70169;SDS011;57543;45.442;9.212;2022-08-21T19:59:36;4.90;;;1.57;;